sensor_id;sensor_type;location;lat;lon;timestamp;P1;durP1;ratioP1;P2;durP2;ratioP2
1625;SDS011;806;48.770;9.156;2023-02-03T00:00:00;0.50;;;0.20;;
1625;SDS011;806;48.770;9.156;2023-02-03T00:02:31;1.23;;;0.20;;
1625;SDS011;806;48.770;9.156;2023-02-03T00:04:58;0.50;;;0.20;;
1625;SDS011;806;48.770;9.156;2023-02-03T00:07:25;0.50;;;0.20;;
1625;SDS011;806;48.770;9.156;2023-02-03T00:09:52;0.52;;;0.20;;
1625;SDS011;806;48.770;9.156;2023-02-03T00:12:21;0.40;;;0.20;;
1625;SDS011;806;48.770;9.156;2023-02-03T00:14:49;0.40;;;0.20;;
1625;SDS011;806;48.770;9.156;2023-02-03T00:17:16;0.40;;;0.20;;
1625;SDS011;806;48.770;9.156;2023-02-03T00:19:44;0.60;;;0.20;;
1625;SDS011;806;48.770;9.156;2023-02-03T00:22:11;0.40;;;0.20;;
1625;SDS011;806;48.770;9.156;2023-02-03T00:24:38;0.40;;;0.20;;
1625;SDS011;806;48.770;9.156;2023-02-03T00:27:05;0.40;;;0.20;;
1625;SDS011;806;48.770;9.156;2023-02-03T00:29:32;0.60;;;0.20;;
1625;SDS011;806;48.770;9.156;2023-02-03T00:32:00;0.40;;;0.20;;
1625;SDS011;806;48.770;9.156;2023-02-03T00:34:28;0.70;;;0.20;;
1625;SDS011;806;48.770;9.156;2023-02-03T00:36:55;0.40;;;0.20;;
1625;SDS011;806;48.770;9.156;2023-02-03T00:39:22;0.50;;;0.20;;
1625;SDS011;806;48.770;9.156;2023-02-03T00:41:49;0.40;;;0.10;;
1625;SDS011;806;48.770;9.156;2023-02-03T00:44:16;0.40;;;0.20;;
1625;SDS011;806;48.770;9.156;2023-02-03T00:46:43;0.30;;;0.10;;
1625;SDS011;806;48.770;9.156;2023-02-03T00:49:12;0.40;;;0.20;;
1625;SDS011;806;48.770;9.156;2023-02-03T00:51:39;0.30;;;0.10;;
1625;SDS011;806;48.770;9.156;2023-02-03T00:54:06;0.40;;;0.20;;
1625;SDS011;806;48.770;9.156;2023-02-03T00:56:33;0.40;;;0.20;;
1625;SDS011;806;48.770;9.156;2023-02-03T00:59:00;0.30;;;0.20;;
1625;SDS011;806;48.770;9.156;2023-02-03T01:01:27;0.80;;;0.10;;
1625;SDS011;806;48.770;9.156;2023-02-03T01:03:54;0.40;;;0.20;;
1625;SDS011;806;48.770;9.156;2023-02-03T01:06:23;0.40;;;0.20;;
1625;SDS011;806;48.770;9.156;2023-02-03T01:08:51;0.40;;;0.20;;
1625;SDS011;806;48.770;9.156;2023-02-03T01:11:18;0.40;;;0.20;;
1625;SDS011;806;48.770;9.156;2023-02-03T01:13:47;0.30;;;0.20;;
1625;SDS011;806;48.770;9.156;2023-02-03T01:16:15;0.40;;;0.20;;
1625;SDS011;806;48.770;9.156;2023-02-03T01:18:43;0.40;;;0.20;;
1625;SDS011;806;48.770;9.156;2023-02-03T01:21:11;0.70;;;0.20;;
1625;SDS011;806;48.770;9.156;2023-02-03T01:23:41;0.50;;;0.20;;
1625;SDS011;806;48.770;9.156;2023-02-03T01:26:09;0.40;;;0.20;;
1625;SDS011;806;48.770;9.156;2023-02-03T01:28:38;0.45;;;0.20;;
1625;SDS011;806;48.770;9.156;2023-02-03T01:31:09;0.80;;;0.20;;
1625;SDS011;806;48.770;9.156;2023-02-03T01:33:37;0.90;;;0.20;;
1625;SDS011;806;48.770;9.156;2023-02-03T01:36:05;1.40;;;0.30;;
1625;SDS011;806;48.770;9.156;2023-02-03T01:38:33;0.40;;;0.20;;
1625;SDS011;806;48.770;9.156;2023-02-03T01:41:02;0.40;;;0.20;;
1625;SDS011;806;48.770;9.156;2023-02-03T01:43:31;0.40;;;0.20;;
1625;SDS011;806;48.770;9.156;2023-02-03T01:46:00;0.40;;;0.20;;
1625;SDS011;806;48.770;9.156;2023-02-03T01:48:30;0.40;;;0.20;;
1625;SDS011;806;48.770;9.156;2023-02-03T01:50:59;0.40;;;0.20;;
1625;SDS011;806;48.770;9.156;2023-02-03T01:53:29;0.43;;;0.20;;
1625;SDS011;806;48.770;9.156;2023-02-03T01:55:57;0.50;;;0.20;;
1625;SDS011;806;48.770;9.156;2023-02-03T01:58:27;0.50;;;0.30;;
1625;SDS011;806;48.770;9.156;2023-02-03T02:00:56;0.50;;;0.20;;
1625;SDS011;806;48.770;9.156;2023-02-03T02:03:25;0.50;;;0.25;;
1625;SDS011;806;48.770;9.156;2023-02-03T02:06:11;0.90;;;0.20;;
1625;SDS011;806;48.770;9.156;2023-02-03T02:08:40;0.60;;;0.20;;
1625;SDS011;806;48.770;9.156;2023-02-03T02:11:10;0.55;;;0.22;;
1625;SDS011;806;48.770;9.156;2023-02-03T02:13:38;0.40;;;0.20;;
1625;SDS011;806;48.770;9.156;2023-02-03T02:16:07;0.68;;;0.20;;
1625;SDS011;806;48.770;9.156;2023-02-03T02:18:51;0.40;;;0.20;;
1625;SDS011;806;48.770;9.156;2023-02-03T02:21:31;0.60;;;0.20;;
1625;SDS011;806;48.770;9.156;2023-02-03T02:27:43;0.50;;;0.20;;
1625;SDS011;806;48.770;9.156;2023-02-03T02:33:41;0.50;;;0.20;;
1625;SDS011;806;48.770;9.156;2023-02-03T02:36:14;0.40;;;0.20;;
1625;SDS011;806;48.770;9.156;2023-02-03T02:38:50;0.60;;;0.20;;
1625;SDS011;806;48.770;9.156;2023-02-03T02:41:23;0.50;;;0.30;;
1625;SDS011;806;48.770;9.156;2023-02-03T02:43:56;0.60;;;0.30;;
1625;SDS011;806;48.770;9.156;2023-02-03T02:46:29;0.40;;;0.20;;
1625;SDS011;806;48.770;9.156;2023-02-03T02:49:02;0.70;;;0.30;;
1625;SDS011;806;48.770;9.156;2023-02-03T02:51:32;0.90;;;0.40;;
1625;SDS011;806;48.770;9.156;2023-02-03T02:54:02;0.60;;;0.30;;
1625;SDS011;806;48.770;9.156;2023-02-03T02:56:33;0.90;;;0.30;;
1625;SDS011;806;48.770;9.156;2023-02-03T02:59:04;0.70;;;0.30;;
1625;SDS011;806;48.770;9.156;2023-02-03T03:01:32;0.40;;;0.30;;
1625;SDS011;806;48.770;9.156;2023-02-03T03:03:59;0.40;;;0.30;;
1625;SDS011;806;48.770;9.156;2023-02-03T03:06:31;1.20;;;0.30;;
1625;SDS011;806;48.770;9.156;2023-02-03T03:09:01;0.60;;;0.30;;
1625;SDS011;806;48.770;9.156;2023-02-03T03:11:32;0.50;;;0.30;;
1625;SDS011;806;48.770;9.156;2023-02-03T03:14:02;0.70;;;0.20;;
1625;SDS011;806;48.770;9.156;2023-02-03T03:16:34;0.60;;;0.30;;
1625;SDS011;806;48.770;9.156;2023-02-03T03:19:06;0.60;;;0.30;;
1625;SDS011;806;48.770;9.156;2023-02-03T03:21:37;0.95;;;0.30;;
1625;SDS011;806;48.770;9.156;2023-02-03T03:24:09;0.90;;;0.30;;
1625;SDS011;806;48.770;9.156;2023-02-03T03:26:41;0.52;;;0.22;;
1625;SDS011;806;48.770;9.156;2023-02-03T03:29:14;0.45;;;0.30;;
1625;SDS011;806;48.770;9.156;2023-02-03T03:31:44;0.40;;;0.30;;
1625;SDS011;806;48.770;9.156;2023-02-03T03:34:13;0.73;;;0.30;;
1625;SDS011;806;48.770;9.156;2023-02-03T03:36:41;0.90;;;0.20;;
1625;SDS011;806;48.770;9.156;2023-02-03T03:39:14;0.60;;;0.30;;
1625;SDS011;806;48.770;9.156;2023-02-03T03:41:49;0.40;;;0.20;;
1625;SDS011;806;48.770;9.156;2023-02-03T03:44:24;0.50;;;0.30;;
1625;SDS011;806;48.770;9.156;2023-02-03T03:46:57;0.35;;;0.20;;
1625;SDS011;806;48.770;9.156;2023-02-03T03:49:30;0.55;;;0.20;;
1625;SDS011;806;48.770;9.156;2023-02-03T03:52:00;0.60;;;0.30;;
1625;SDS011;806;48.770;9.156;2023-02-03T03:54:30;0.40;;;0.20;;
1625;SDS011;806;48.770;9.156;2023-02-03T03:57:00;0.30;;;0.10;;
1625;SDS011;806;48.770;9.156;2023-02-03T03:59:31;0.30;;;0.10;;
1625;SDS011;806;48.770;9.156;2023-02-03T04:02:02;1.30;;;0.20;;
1625;SDS011;806;48.770;9.156;2023-02-03T04:04:31;0.30;;;0.20;;
1625;SDS011;806;48.770;9.156;2023-02-03T04:07:01;0.30;;;0.10;;
1625;SDS011;806;48.770;9.156;2023-02-03T04:09:28;0.40;;;0.17;;
1625;SDS011;806;48.770;9.156;2023-02-03T04:11:55;0.30;;;0.20;;
1625;SDS011;806;48.770;9.156;2023-02-03T04:14:31;0.30;;;0.10;;
1625;SDS011;806;48.770;9.156;2023-02-03T04:16:59;0.30;;;0.10;;
1625;SDS011;806;48.770;9.156;2023-02-03T04:19:27;0.30;;;0.10;;
1625;SDS011;806;48.770;9.156;2023-02-03T04:21:55;0.30;;;0.10;;
1625;SDS011;806;48.770;9.156;2023-02-03T04:24:22;0.50;;;0.20;;
1625;SDS011;806;48.770;9.156;2023-02-03T04:26:49;0.40;;;0.20;;
1625;SDS011;806;48.770;9.156;2023-02-03T04:29:17;0.30;;;0.10;;
1625;SDS011;806;48.770;9.156;2023-02-03T04:31:44;0.40;;;0.10;;
1625;SDS011;806;48.770;9.156;2023-02-03T04:34:11;0.30;;;0.10;;
1625;SDS011;806;48.770;9.156;2023-02-03T04:36:38;0.40;;;0.10;;
1625;SDS011;806;48.770;9.156;2023-02-03T04:39:06;0.30;;;0.10;;
1625;SDS011;806;48.770;9.156;2023-02-03T04:41:33;0.90;;;0.10;;
1625;SDS011;806;48.770;9.156;2023-02-03T04:44:00;0.77;;;0.40;;
1625;SDS011;806;48.770;9.156;2023-02-03T04:46:27;0.40;;;0.10;;
1625;SDS011;806;48.770;9.156;2023-02-03T04:48:54;0.30;;;0.20;;
1625;SDS011;806;48.770;9.156;2023-02-03T04:51:21;0.30;;;0.10;;
1625;SDS011;806;48.770;9.156;2023-02-03T04:53:48;0.30;;;0.20;;
1625;SDS011;806;48.770;9.156;2023-02-03T04:56:17;0.30;;;0.10;;
1625;SDS011;806;48.770;9.156;2023-02-03T04:58:44;0.40;;;0.10;;
1625;SDS011;806;48.770;9.156;2023-02-03T05:01:11;0.40;;;0.20;;
1625;SDS011;806;48.770;9.156;2023-02-03T05:03:38;0.30;;;0.20;;
1625;SDS011;806;48.770;9.156;2023-02-03T05:06:05;0.40;;;0.20;;
1625;SDS011;806;48.770;9.156;2023-02-03T05:08:32;0.40;;;0.20;;
1625;SDS011;806;48.770;9.156;2023-02-03T05:10:59;1.00;;;0.20;;
1625;SDS011;806;48.770;9.156;2023-02-03T05:13:27;0.80;;;0.20;;
1625;SDS011;806;48.770;9.156;2023-02-03T05:15:54;0.50;;;0.20;;
1625;SDS011;806;48.770;9.156;2023-02-03T05:18:21;0.30;;;0.20;;
1625;SDS011;806;48.770;9.156;2023-02-03T05:20:48;0.80;;;0.20;;
1625;SDS011;806;48.770;9.156;2023-02-03T05:23:15;0.70;;;0.20;;
1625;SDS011;806;48.770;9.156;2023-02-03T05:25:43;0.40;;;0.20;;
1625;SDS011;806;48.770;9.156;2023-02-03T05:28:10;0.40;;;0.20;;
1625;SDS011;806;48.770;9.156;2023-02-03T05:30:39;0.40;;;0.20;;
1625;SDS011;806;48.770;9.156;2023-02-03T05:33:06;0.80;;;0.20;;
1625;SDS011;806;48.770;9.156;2023-02-03T05:35:33;0.40;;;0.20;;
1625;SDS011;806;48.770;9.156;2023-02-03T05:38:01;0.50;;;0.20;;
1625;SDS011;806;48.770;9.156;2023-02-03T05:40:28;0.40;;;0.20;;
1625;SDS011;806;48.770;9.156;2023-02-03T05:43:13;0.50;;;0.20;;
1625;SDS011;806;48.770;9.156;2023-02-03T05:45:41;0.40;;;0.20;;
1625;SDS011;806;48.770;9.156;2023-02-03T05:48:08;0.70;;;0.20;;
1625;SDS011;806;48.770;9.156;2023-02-03T05:50:35;0.40;;;0.20;;
1625;SDS011;806;48.770;9.156;2023-02-03T05:53:03;0.63;;;0.20;;
1625;SDS011;806;48.770;9.156;2023-02-03T05:55:31;0.70;;;0.20;;
1625;SDS011;806;48.770;9.156;2023-02-03T05:57:59;0.70;;;0.20;;
1625;SDS011;806;48.770;9.156;2023-02-03T06:00:26;0.45;;;0.20;;
1625;SDS011;806;48.770;9.156;2023-02-03T06:02:56;0.45;;;0.20;;
1625;SDS011;806;48.770;9.156;2023-02-03T06:05:24;0.40;;;0.20;;
1625;SDS011;806;48.770;9.156;2023-02-03T06:07:52;0.40;;;0.20;;
1625;SDS011;806;48.770;9.156;2023-02-03T06:10:19;0.90;;;0.20;;
1625;SDS011;806;48.770;9.156;2023-02-03T06:12:46;0.47;;;0.20;;
1625;SDS011;806;48.770;9.156;2023-02-03T06:15:14;0.50;;;0.20;;
1625;SDS011;806;48.770;9.156;2023-02-03T06:17:42;0.70;;;0.50;;
1625;SDS011;806;48.770;9.156;2023-02-03T06:20:12;0.50;;;0.30;;
1625;SDS011;806;48.770;9.156;2023-02-03T06:22:40;0.50;;;0.30;;
1625;SDS011;806;48.770;9.156;2023-02-03T06:25:08;0.55;;;0.40;;
1625;SDS011;806;48.770;9.156;2023-02-03T06:27:36;1.20;;;0.40;;
1625;SDS011;806;48.770;9.156;2023-02-03T06:30:03;2.10;;;0.40;;
1625;SDS011;806;48.770;9.156;2023-02-03T06:32:31;0.50;;;0.20;;
1625;SDS011;806;48.770;9.156;2023-02-03T06:34:58;1.67;;;0.30;;
1625;SDS011;806;48.770;9.156;2023-02-03T06:37:26;0.60;;;0.30;;
1625;SDS011;806;48.770;9.156;2023-02-03T06:39:53;0.40;;;0.25;;
1625;SDS011;806;48.770;9.156;2023-02-03T06:42:20;1.13;;;0.20;;
1625;SDS011;806;48.770;9.156;2023-02-03T06:44:47;0.40;;;0.20;;
1625;SDS011;806;48.770;9.156;2023-02-03T06:47:14;0.90;;;0.30;;
1625;SDS011;806;48.770;9.156;2023-02-03T06:49:42;0.50;;;0.20;;
1625;SDS011;806;48.770;9.156;2023-02-03T06:52:09;0.80;;;0.20;;
1625;SDS011;806;48.770;9.156;2023-02-03T06:54:37;0.93;;;0.50;;
1625;SDS011;806;48.770;9.156;2023-02-03T06:57:04;0.60;;;0.30;;
1625;SDS011;806;48.770;9.156;2023-02-03T06:59:31;1.00;;;0.30;;
1625;SDS011;806;48.770;9.156;2023-02-03T07:01:58;0.47;;;0.20;;
1625;SDS011;806;48.770;9.156;2023-02-03T07:04:25;0.50;;;0.20;;
1625;SDS011;806;48.770;9.156;2023-02-03T07:06:54;0.50;;;0.20;;
1625;SDS011;806;48.770;9.156;2023-02-03T07:09:21;0.45;;;0.20;;
1625;SDS011;806;48.770;9.156;2023-02-03T07:11:50;0.40;;;0.20;;
1625;SDS011;806;48.770;9.156;2023-02-03T07:14:17;0.40;;;0.20;;
1625;SDS011;806;48.770;9.156;2023-02-03T07:16:44;1.40;;;0.30;;
1625;SDS011;806;48.770;9.156;2023-02-03T07:19:11;1.50;;;0.37;;
1625;SDS011;806;48.770;9.156;2023-02-03T07:21:40;0.70;;;0.30;;
1625;SDS011;806;48.770;9.156;2023-02-03T07:24:08;0.90;;;0.30;;
1625;SDS011;806;48.770;9.156;2023-02-03T07:26:35;1.53;;;0.30;;
1625;SDS011;806;48.770;9.156;2023-02-03T07:29:04;0.47;;;0.20;;
1625;SDS011;806;48.770;9.156;2023-02-03T07:31:31;0.40;;;0.20;;
1625;SDS011;806;48.770;9.156;2023-02-03T07:33:59;0.50;;;0.28;;
1625;SDS011;806;48.770;9.156;2023-02-03T07:36:26;0.43;;;0.22;;
1625;SDS011;806;48.770;9.156;2023-02-03T07:38:54;0.50;;;0.30;;
1625;SDS011;806;48.770;9.156;2023-02-03T07:41:21;0.45;;;0.30;;
1625;SDS011;806;48.770;9.156;2023-02-03T07:43:48;0.50;;;0.20;;
1625;SDS011;806;48.770;9.156;2023-02-03T07:46:17;0.50;;;0.20;;
1625;SDS011;806;48.770;9.156;2023-02-03T07:48:44;1.02;;;0.30;;
1625;SDS011;806;48.770;9.156;2023-02-03T07:51:11;0.60;;;0.30;;
1625;SDS011;806;48.770;9.156;2023-02-03T07:53:38;0.75;;;0.30;;
1625;SDS011;806;48.770;9.156;2023-02-03T07:56:05;0.68;;;0.20;;
1625;SDS011;806;48.770;9.156;2023-02-03T07:58:32;1.00;;;0.30;;
1625;SDS011;806;48.770;9.156;2023-02-03T08:00:59;1.25;;;0.60;;
1625;SDS011;806;48.770;9.156;2023-02-03T08:03:27;0.85;;;0.30;;
1625;SDS011;806;48.770;9.156;2023-02-03T08:05:54;1.25;;;0.40;;
1625;SDS011;806;48.770;9.156;2023-02-03T08:08:21;0.90;;;0.30;;
1625;SDS011;806;48.770;9.156;2023-02-03T08:10:48;0.60;;;0.30;;
1625;SDS011;806;48.770;9.156;2023-02-03T08:13:15;0.80;;;0.40;;
1625;SDS011;806;48.770;9.156;2023-02-03T08:15:42;0.68;;;0.30;;
1625;SDS011;806;48.770;9.156;2023-02-03T08:18:09;0.57;;;0.30;;
1625;SDS011;806;48.770;9.156;2023-02-03T08:20:38;0.70;;;0.40;;
1625;SDS011;806;48.770;9.156;2023-02-03T08:23:05;1.15;;;0.40;;
1625;SDS011;806;48.770;9.156;2023-02-03T08:25:32;1.20;;;0.40;;
1625;SDS011;806;48.770;9.156;2023-02-03T08:27:59;1.40;;;0.50;;
1625;SDS011;806;48.770;9.156;2023-02-03T08:30:26;1.40;;;0.40;;
1625;SDS011;806;48.770;9.156;2023-02-03T08:32:53;0.80;;;0.40;;
1625;SDS011;806;48.770;9.156;2023-02-03T08:35:20;0.70;;;0.40;;
1625;SDS011;806;48.770;9.156;2023-02-03T08:37:49;0.80;;;0.40;;
1625;SDS011;806;48.770;9.156;2023-02-03T08:40:16;0.70;;;0.40;;
1625;SDS011;806;48.770;9.156;2023-02-03T08:42:43;0.85;;;0.40;;
1625;SDS011;806;48.770;9.156;2023-02-03T08:45:10;1.23;;;0.40;;
1625;SDS011;806;48.770;9.156;2023-02-03T08:47:37;1.33;;;0.50;;
1625;SDS011;806;48.770;9.156;2023-02-03T08:50:05;0.60;;;0.40;;
1625;SDS011;806;48.770;9.156;2023-02-03T08:52:34;1.00;;;0.40;;
1625;SDS011;806;48.770;9.156;2023-02-03T08:55:03;0.50;;;0.40;;
1625;SDS011;806;48.770;9.156;2023-02-03T08:57:31;0.80;;;0.40;;
1625;SDS011;806;48.770;9.156;2023-02-03T08:59:59;2.00;;;0.40;;
1625;SDS011;806;48.770;9.156;2023-02-03T09:02:26;0.68;;;0.40;;
1625;SDS011;806;48.770;9.156;2023-02-03T09:04:53;1.13;;;0.50;;
1625;SDS011;806;48.770;9.156;2023-02-03T09:07:20;0.63;;;0.40;;
1625;SDS011;806;48.770;9.156;2023-02-03T09:09:48;0.90;;;0.43;;
1625;SDS011;806;48.770;9.156;2023-02-03T09:12:16;0.70;;;0.45;;
1625;SDS011;806;48.770;9.156;2023-02-03T09:14:43;1.30;;;0.50;;
1625;SDS011;806;48.770;9.156;2023-02-03T09:17:10;0.80;;;0.50;;
1625;SDS011;806;48.770;9.156;2023-02-03T09:19:37;0.85;;;0.50;;
1625;SDS011;806;48.770;9.156;2023-02-03T09:22:04;0.88;;;0.50;;
1625;SDS011;806;48.770;9.156;2023-02-03T09:24:32;0.80;;;0.40;;
1625;SDS011;806;48.770;9.156;2023-02-03T09:26:59;0.80;;;0.50;;
1625;SDS011;806;48.770;9.156;2023-02-03T09:29:27;1.30;;;0.50;;
1625;SDS011;806;48.770;9.156;2023-02-03T09:31:54;0.90;;;0.50;;
1625;SDS011;806;48.770;9.156;2023-02-03T09:34:21;1.03;;;0.50;;
1625;SDS011;806;48.770;9.156;2023-02-03T09:36:48;0.90;;;0.40;;
1625;SDS011;806;48.770;9.156;2023-02-03T09:39:16;0.60;;;0.40;;
1625;SDS011;806;48.770;9.156;2023-02-03T09:44:38;0.80;;;0.40;;
1625;SDS011;806;48.770;9.156;2023-02-03T09:47:11;1.10;;;0.35;;
1625;SDS011;806;48.770;9.156;2023-02-03T09:49:41;1.30;;;0.30;;
1625;SDS011;806;48.770;9.156;2023-02-03T09:52:13;0.80;;;0.40;;
1625;SDS011;806;48.770;9.156;2023-02-03T09:54:46;1.70;;;0.50;;
1625;SDS011;806;48.770;9.156;2023-02-03T09:57:19;0.80;;;0.40;;
1625;SDS011;806;48.770;9.156;2023-02-03T09:59:49;1.20;;;0.40;;
1625;SDS011;806;48.770;9.156;2023-02-03T10:02:21;0.77;;;0.40;;
1625;SDS011;806;48.770;9.156;2023-02-03T10:04:57;1.13;;;0.40;;
1625;SDS011;806;48.770;9.156;2023-02-03T10:07:30;1.10;;;0.40;;
1625;SDS011;806;48.770;9.156;2023-02-03T10:10:07;1.00;;;0.47;;
1625;SDS011;806;48.770;9.156;2023-02-03T10:15:50;1.10;;;0.45;;
1625;SDS011;806;48.770;9.156;2023-02-03T10:18:26;0.82;;;0.40;;
1625;SDS011;806;48.770;9.156;2023-02-03T10:20:58;0.90;;;0.40;;
1625;SDS011;806;48.770;9.156;2023-02-03T10:23:30;0.80;;;0.40;;
1625;SDS011;806;48.770;9.156;2023-02-03T10:26:01;0.90;;;0.50;;
1625;SDS011;806;48.770;9.156;2023-02-03T10:28:31;1.85;;;0.50;;
1625;SDS011;806;48.770;9.156;2023-02-03T10:31:06;1.00;;;0.40;;
1625;SDS011;806;48.770;9.156;2023-02-03T10:33:42;0.70;;;0.40;;
1625;SDS011;806;48.770;9.156;2023-02-03T10:36:13;1.17;;;0.60;;
1625;SDS011;806;48.770;9.156;2023-02-03T10:38:49;0.80;;;0.52;;
1625;SDS011;806;48.770;9.156;2023-02-03T10:41:24;1.80;;;1.20;;
1625;SDS011;806;48.770;9.156;2023-02-03T10:43:54;0.70;;;0.40;;
1625;SDS011;806;48.770;9.156;2023-02-03T10:46:25;0.70;;;0.40;;
1625;SDS011;806;48.770;9.156;2023-02-03T10:48:53;0.70;;;0.30;;
1625;SDS011;806;48.770;9.156;2023-02-03T10:51:22;0.70;;;0.30;;
1625;SDS011;806;48.770;9.156;2023-02-03T10:53:49;0.60;;;0.30;;
1625;SDS011;806;48.770;9.156;2023-02-03T10:56:19;0.53;;;0.23;;
1625;SDS011;806;48.770;9.156;2023-02-03T10:58:49;0.60;;;0.25;;
1625;SDS011;806;48.770;9.156;2023-02-03T11:01:18;1.70;;;0.28;;
1625;SDS011;806;48.770;9.156;2023-02-03T11:03:59;0.50;;;0.20;;
1625;SDS011;806;48.770;9.156;2023-02-03T11:06:28;0.70;;;0.20;;
1625;SDS011;806;48.770;9.156;2023-02-03T11:08:56;0.50;;;0.20;;
1625;SDS011;806;48.770;9.156;2023-02-03T11:11:25;0.50;;;0.22;;
1625;SDS011;806;48.770;9.156;2023-02-03T11:14:09;0.40;;;0.20;;
1625;SDS011;806;48.770;9.156;2023-02-03T11:16:37;0.80;;;0.20;;
1625;SDS011;806;48.770;9.156;2023-02-03T11:19:11;0.68;;;0.20;;
1625;SDS011;806;48.770;9.156;2023-02-03T11:21:42;0.98;;;0.30;;
1625;SDS011;806;48.770;9.156;2023-02-03T11:24:15;0.90;;;0.40;;
1625;SDS011;806;48.770;9.156;2023-02-03T11:26:45;1.20;;;0.30;;
1625;SDS011;806;48.770;9.156;2023-02-03T11:29:16;0.50;;;0.20;;
1625;SDS011;806;48.770;9.156;2023-02-03T11:31:48;0.50;;;0.28;;
1625;SDS011;806;48.770;9.156;2023-02-03T11:34:19;1.60;;;0.20;;
1625;SDS011;806;48.770;9.156;2023-02-03T11:36:50;1.60;;;0.40;;
1625;SDS011;806;48.770;9.156;2023-02-03T11:39:19;0.63;;;0.30;;
1625;SDS011;806;48.770;9.156;2023-02-03T11:41:51;0.40;;;0.20;;
1625;SDS011;806;48.770;9.156;2023-02-03T11:44:20;0.40;;;0.10;;
1625;SDS011;806;48.770;9.156;2023-02-03T11:46:51;0.50;;;0.20;;
1625;SDS011;806;48.770;9.156;2023-02-03T11:52:31;0.55;;;0.38;;
1625;SDS011;806;48.770;9.156;2023-02-03T11:55:07;0.80;;;0.28;;
1625;SDS011;806;48.770;9.156;2023-02-03T11:57:48;1.10;;;0.30;;
1625;SDS011;806;48.770;9.156;2023-02-03T12:00:29;1.40;;;0.20;;
1625;SDS011;806;48.770;9.156;2023-02-03T12:03:09;0.50;;;0.20;;
1625;SDS011;806;48.770;9.156;2023-02-03T12:06:05;0.70;;;0.30;;
1625;SDS011;806;48.770;9.156;2023-02-03T12:08:54;0.50;;;0.20;;
1625;SDS011;806;48.770;9.156;2023-02-03T12:11:39;0.52;;;0.15;;
1625;SDS011;806;48.770;9.156;2023-02-03T12:14:22;0.40;;;0.20;;
1625;SDS011;806;48.770;9.156;2023-02-03T12:17:07;0.30;;;0.10;;
1625;SDS011;806;48.770;9.156;2023-02-03T12:19:51;0.40;;;0.10;;
1625;SDS011;806;48.770;9.156;2023-02-03T12:22:32;0.30;;;0.10;;
1625;SDS011;806;48.770;9.156;2023-02-03T12:25:14;0.40;;;0.20;;
1625;SDS011;806;48.770;9.156;2023-02-03T12:27:53;0.50;;;0.20;;
1625;SDS011;806;48.770;9.156;2023-02-03T12:30:30;0.50;;;0.20;;
1625;SDS011;806;48.770;9.156;2023-02-03T12:33:01;0.40;;;0.20;;
1625;SDS011;806;48.770;9.156;2023-02-03T12:35:37;0.40;;;0.10;;
1625;SDS011;806;48.770;9.156;2023-02-03T12:38:11;0.30;;;0.10;;
1625;SDS011;806;48.770;9.156;2023-02-03T12:40:43;0.30;;;0.10;;
1625;SDS011;806;48.770;9.156;2023-02-03T12:43:17;0.40;;;0.20;;
1625;SDS011;806;48.770;9.156;2023-02-03T12:45:50;0.30;;;0.20;;
1625;SDS011;806;48.770;9.156;2023-02-03T12:48:21;0.35;;;0.20;;
1625;SDS011;806;48.770;9.156;2023-02-03T12:50:52;0.50;;;0.20;;
1625;SDS011;806;48.770;9.156;2023-02-03T12:53:26;0.88;;;0.20;;
1625;SDS011;806;48.770;9.156;2023-02-03T12:55:57;0.40;;;0.20;;
1625;SDS011;806;48.770;9.156;2023-02-03T12:58:30;0.80;;;0.20;;
1625;SDS011;806;48.770;9.156;2023-02-03T13:01:01;0.50;;;0.28;;
1625;SDS011;806;48.770;9.156;2023-02-03T13:03:34;0.40;;;0.20;;
1625;SDS011;806;48.770;9.156;2023-02-03T13:06:06;0.60;;;0.20;;
1625;SDS011;806;48.770;9.156;2023-02-03T13:08:42;0.60;;;0.30;;
1625;SDS011;806;48.770;9.156;2023-02-03T13:11:18;0.45;;;0.22;;
1625;SDS011;806;48.770;9.156;2023-02-03T13:13:51;0.50;;;0.20;;
1625;SDS011;806;48.770;9.156;2023-02-03T13:16:22;0.70;;;0.30;;
1625;SDS011;806;48.770;9.156;2023-02-03T13:18:57;0.50;;;0.20;;
1625;SDS011;806;48.770;9.156;2023-02-03T13:21:28;0.30;;;0.10;;
1625;SDS011;806;48.770;9.156;2023-02-03T13:23:56;0.52;;;0.20;;
1625;SDS011;806;48.770;9.156;2023-02-03T13:26:40;0.30;;;0.10;;
1625;SDS011;806;48.770;9.156;2023-02-03T13:29:36;0.40;;;0.10;;
1625;SDS011;806;48.770;9.156;2023-02-03T13:32:14;0.50;;;0.20;;
1625;SDS011;806;48.770;9.156;2023-02-03T13:35:06;0.40;;;0.20;;
1625;SDS011;806;48.770;9.156;2023-02-03T13:40:54;1.30;;;0.60;;
1625;SDS011;806;48.770;9.156;2023-02-03T13:43:27;0.43;;;0.22;;
1625;SDS011;806;48.770;9.156;2023-02-03T13:45:59;0.60;;;0.20;;
1625;SDS011;806;48.770;9.156;2023-02-03T13:48:29;0.55;;;0.20;;
1625;SDS011;806;48.770;9.156;2023-02-03T13:51:02;0.30;;;0.20;;
1625;SDS011;806;48.770;9.156;2023-02-03T13:53:33;0.70;;;0.20;;
1625;SDS011;806;48.770;9.156;2023-02-03T13:56:03;0.40;;;0.20;;
1625;SDS011;806;48.770;9.156;2023-02-03T13:58:34;0.43;;;0.22;;
1625;SDS011;806;48.770;9.156;2023-02-03T14:01:04;0.60;;;0.30;;
1625;SDS011;806;48.770;9.156;2023-02-03T14:03:52;0.30;;;0.10;;
1625;SDS011;806;48.770;9.156;2023-02-03T14:09:38;0.32;;;0.20;;
1625;SDS011;806;48.770;9.156;2023-02-03T14:12:18;0.82;;;0.20;;
1625;SDS011;806;48.770;9.156;2023-02-03T14:15:16;0.30;;;0.20;;
1625;SDS011;806;48.770;9.156;2023-02-03T14:18:04;0.40;;;0.20;;
1625;SDS011;806;48.770;9.156;2023-02-03T14:20:57;0.50;;;0.20;;
1625;SDS011;806;48.770;9.156;2023-02-03T14:23:40;0.70;;;0.32;;
1625;SDS011;806;48.770;9.156;2023-02-03T14:26:21;0.50;;;0.20;;
1625;SDS011;806;48.770;9.156;2023-02-03T14:29:06;0.50;;;0.20;;
1625;SDS011;806;48.770;9.156;2023-02-03T14:31:51;0.40;;;0.20;;
1625;SDS011;806;48.770;9.156;2023-02-03T14:37:11;0.50;;;0.20;;
1625;SDS011;806;48.770;9.156;2023-02-03T14:42:57;0.40;;;0.20;;
1625;SDS011;806;48.770;9.156;2023-02-03T14:45:38;0.70;;;0.20;;
1625;SDS011;806;48.770;9.156;2023-02-03T14:48:47;0.40;;;0.10;;
1625;SDS011;806;48.770;9.156;2023-02-03T14:51:22;0.30;;;0.10;;
1625;SDS011;806;48.770;9.156;2023-02-03T14:54:05;0.50;;;0.10;;
1625;SDS011;806;48.770;9.156;2023-02-03T14:57:00;0.45;;;0.10;;
1625;SDS011;806;48.770;9.156;2023-02-03T14:59:41;0.40;;;0.20;;
1625;SDS011;806;48.770;9.156;2023-02-03T15:02:13;1.20;;;0.10;;
1625;SDS011;806;48.770;9.156;2023-02-03T15:04:47;0.30;;;0.20;;
1625;SDS011;806;48.770;9.156;2023-02-03T15:10:12;0.50;;;0.13;;
1625;SDS011;806;48.770;9.156;2023-02-03T15:12:45;0.47;;;0.13;;
1625;SDS011;806;48.770;9.156;2023-02-03T15:15:18;0.40;;;0.20;;
1625;SDS011;806;48.770;9.156;2023-02-03T15:17:49;0.30;;;0.10;;
1625;SDS011;806;48.770;9.156;2023-02-03T15:20:29;0.30;;;0.20;;
1625;SDS011;806;48.770;9.156;2023-02-03T15:22:59;0.30;;;0.10;;
1625;SDS011;806;48.770;9.156;2023-02-03T15:25:27;0.30;;;0.10;;
1625;SDS011;806;48.770;9.156;2023-02-03T15:28:10;0.30;;;0.10;;
1625;SDS011;806;48.770;9.156;2023-02-03T15:30:37;0.20;;;0.10;;
1625;SDS011;806;48.770;9.156;2023-02-03T15:33:08;0.30;;;0.10;;
1625;SDS011;806;48.770;9.156;2023-02-03T15:35:40;0.30;;;0.10;;
1625;SDS011;806;48.770;9.156;2023-02-03T15:38:11;0.57;;;0.20;;
1625;SDS011;806;48.770;9.156;2023-02-03T15:40:42;0.30;;;0.20;;
1625;SDS011;806;48.770;9.156;2023-02-03T15:43:13;0.43;;;0.20;;
1625;SDS011;806;48.770;9.156;2023-02-03T15:45:46;0.30;;;0.20;;
1625;SDS011;806;48.770;9.156;2023-02-03T15:48:27;0.30;;;0.10;;
1625;SDS011;806;48.770;9.156;2023-02-03T15:51:01;0.40;;;0.20;;
1625;SDS011;806;48.770;9.156;2023-02-03T15:53:33;1.60;;;0.10;;
1625;SDS011;806;48.770;9.156;2023-02-03T15:56:10;0.40;;;0.10;;
1625;SDS011;806;48.770;9.156;2023-02-03T15:58:44;0.90;;;0.20;;
1625;SDS011;806;48.770;9.156;2023-02-03T16:01:12;2.23;;;0.30;;
1625;SDS011;806;48.770;9.156;2023-02-03T16:03:42;0.43;;;0.20;;
1625;SDS011;806;48.770;9.156;2023-02-03T16:06:14;6.33;;;0.30;;
1625;SDS011;806;48.770;9.156;2023-02-03T16:08:44;1.50;;;0.27;;
1625;SDS011;806;48.770;9.156;2023-02-03T16:11:22;1.77;;;0.30;;
1625;SDS011;806;48.770;9.156;2023-02-03T16:13:51;3.83;;;0.20;;
1625;SDS011;806;48.770;9.156;2023-02-03T16:16:21;0.50;;;0.20;;
1625;SDS011;806;48.770;9.156;2023-02-03T16:18:54;0.30;;;0.10;;
1625;SDS011;806;48.770;9.156;2023-02-03T16:21:27;0.33;;;0.10;;
1625;SDS011;806;48.770;9.156;2023-02-03T16:23:56;0.50;;;0.20;;